createdAt,value
2023-09-08T00:04:50.880Z,20.21
2023-09-08T00:14:53.882Z,20.10
2023-09-08T00:24:58.509Z,20.12
2023-09-08T00:35:01.520Z,19.94
2023-09-08T00:45:06.931Z,19.65
2023-09-08T00:55:10.796Z,19.41
2023-09-08T01:05:15.649Z,19.25
2023-09-08T01:15:18.762Z,19.14
2023-09-08T01:25:23.925Z,19.23
2023-09-08T01:35:27.403Z,19.02
2023-09-08T01:45:31.821Z,18.79
2023-09-08T01:55:34.902Z,18.57
2023-09-08T02:05:40.269Z,18.45
2023-09-08T02:15:43.474Z,18.37
2023-09-08T02:25:48.764Z,18.22
2023-09-08T02:35:52.112Z,18.07
2023-09-08T02:45:57.625Z,17.92
2023-09-08T02:56:01.441Z,17.71
2023-09-08T03:06:06.024Z,17.59
2023-09-08T03:16:11.686Z,17.57
2023-09-08T03:26:16.253Z,17.52
2023-09-08T03:36:19.068Z,17.40
2023-09-08T03:46:25.684Z,17.35
2023-09-08T03:56:28.981Z,17.32
2023-09-08T04:06:33.431Z,17.36
2023-09-08T04:16:36.980Z,17.31
2023-09-08T04:26:42.048Z,17.42
2023-09-08T04:36:45.696Z,17.50
2023-09-08T04:46:50.316Z,17.45
2023-09-08T04:56:54.313Z,17.39
2023-09-08T05:07:01.568Z,17.37
2023-09-08T05:17:06.027Z,17.38
2023-09-08T05:27:10.747Z,17.59
2023-09-08T05:37:13.948Z,17.84
2023-09-08T05:47:18.705Z,18.14
2023-09-08T05:57:22.428Z,18.39
2023-09-08T06:07:26.867Z,18.69
2023-09-08T06:17:29.979Z,19.00
2023-09-08T06:27:34.977Z,19.37
2023-09-08T06:37:38.595Z,19.66
2023-09-08T06:47:44.979Z,19.92
2023-09-08T06:57:48.670Z,20.29
2023-09-08T07:07:53.423Z,20.78
2023-09-08T07:17:56.637Z,21.34
2023-09-08T07:28:01.483Z,21.90
2023-09-08T07:38:04.560Z,22.44
2023-09-08T07:48:09.575Z,22.97
2023-09-08T07:58:13.324Z,23.43
2023-09-08T08:08:22.178Z,23.95
2023-09-08T08:18:30.531Z,24.31
2023-09-08T08:28:38.276Z,24.79
2023-09-08T08:38:51.238Z,25.04
2023-09-08T08:48:58.932Z,25.47
2023-09-08T08:59:05.806Z,25.77
2023-09-08T09:09:13.475Z,26.06
2023-09-08T09:19:26.509Z,26.43
2023-09-08T09:29:31.019Z,26.82
2023-09-08T09:39:37.417Z,27.19
2023-09-08T09:49:51.298Z,27.59
2023-09-08T09:59:57.216Z,27.77
2023-09-08T10:10:02.345Z,28.23
2023-09-08T10:20:17.231Z,28.37
2023-09-08T10:30:22.945Z,28.65
2023-09-08T10:40:28.456Z,28.97
2023-09-08T10:50:38.013Z,29.23
2023-09-08T11:00:49.211Z,29.59
2023-09-08T11:10:53.603Z,29.83
2023-09-08T11:21:00.268Z,30.22
2023-09-08T11:31:08.518Z,30.53
2023-09-08T11:41:17.381Z,30.70
2023-09-08T11:51:26.260Z,30.76
2023-09-08T12:01:32.738Z,31.02
2023-09-08T12:11:43.797Z,31.23
2023-09-08T12:21:57.743Z,31.47
2023-09-08T12:32:03.734Z,31.78
2023-09-08T12:42:09.856Z,31.94
2023-09-08T12:52:15.228Z,32.05
2023-09-08T13:02:27.186Z,32.11
2023-09-08T13:12:32.462Z,32.24
2023-09-08T13:22:38.572Z,32.38
2023-09-08T13:32:51.855Z,32.44
2023-09-08T13:42:54.926Z,32.43
2023-09-08T13:53:09.251Z,32.51
2023-09-08T14:03:14.376Z,32.53
2023-09-08T14:13:20.062Z,32.60
2023-09-08T14:23:32.269Z,32.63
2023-09-08T14:33:37.599Z,32.59
2023-09-08T14:43:49.943Z,33.13
2023-09-08T14:53:54.409Z,33.32
2023-09-08T15:04:00.777Z,34.06
2023-09-08T15:14:12.016Z,34.21
2023-09-08T15:24:18.162Z,34.12
2023-09-08T15:34:27.613Z,33.85
2023-09-08T15:44:38.340Z,32.91
2023-09-08T15:54:43.245Z,32.16
2023-09-08T16:04:51.713Z,31.55
2023-09-08T16:15:02.284Z,31.11
2023-09-08T16:25:09.074Z,30.68
2023-09-08T16:35:20.249Z,30.81
2023-09-08T16:45:26.170Z,30.84
2023-09-08T16:55:33.803Z,30.85
2023-09-08T17:05:44.135Z,30.43
2023-09-08T17:15:51.684Z,29.80
2023-09-08T17:25:57.279Z,29.31
2023-09-08T17:36:08.575Z,28.76
2023-09-08T17:46:14.922Z,28.21
2023-09-08T17:56:22.957Z,27.68
2023-09-08T18:06:25.911Z,27.15
2023-09-08T18:16:30.311Z,26.63
2023-09-08T18:26:33.273Z,26.17
2023-09-08T18:36:37.610Z,25.74
2023-09-08T18:46:40.765Z,25.40
2023-09-08T18:56:45.198Z,25.13
2023-09-08T19:06:48.195Z,24.85
2023-09-08T19:16:52.444Z,24.57
2023-09-08T19:26:55.463Z,24.38
2023-09-08T19:37:00.009Z,24.27
2023-09-08T19:47:03.087Z,24.10
2023-09-08T19:57:07.678Z,23.97
2023-09-08T20:07:10.796Z,24.01
2023-09-08T20:17:15.310Z,23.87
2023-09-08T20:27:18.490Z,23.74
2023-09-08T20:37:22.934Z,23.56
2023-09-08T20:47:25.896Z,23.32
2023-09-08T20:57:30.238Z,23.13
2023-09-08T21:07:33.235Z,22.95
2023-09-08T21:17:37.649Z,22.74
2023-09-08T21:27:40.684Z,22.51
2023-09-08T21:37:45.043Z,22.34
2023-09-08T21:47:48.975Z,22.13
2023-09-08T21:57:53.448Z,21.93
2023-09-08T22:07:56.456Z,21.75
2023-09-08T22:18:00.812Z,21.62
2023-09-08T22:28:04.198Z,21.49
2023-09-08T22:38:08.538Z,21.34
2023-09-08T22:48:12.007Z,21.17
2023-09-08T22:58:17.093Z,21.02
2023-09-08T23:08:20.311Z,20.88
2023-09-08T23:18:24.786Z,20.73
2023-09-08T23:28:27.927Z,20.60
2023-09-08T23:38:32.344Z,20.50
2023-09-08T23:48:35.282Z,20.36
2023-09-08T23:58:39.615Z,20.26
